sensor_id;sensor_type;location;lat;lon;timestamp;P1;durP1;ratioP1;P2;durP2;ratioP2
22826;SDS011;11580;52.562;13.418;2024-02-21T00:02:00;7.50;;;6.63;;
22826;SDS011;11580;52.562;13.418;2024-02-21T00:04:27;11.07;;;6.97;;
22826;SDS011;11580;52.562;13.418;2024-02-21T00:06:54;8.53;;;5.30;;
22826;SDS011;11580;52.562;13.418;2024-02-21T00:09:21;6.13;;;5.43;;
22826;SDS011;11580;52.562;13.418;2024-02-21T00:11:49;11.10;;;6.27;;
22826;SDS011;11580;52.562;13.418;2024-02-21T00:14:16;7.10;;;6.00;;
22826;SDS011;11580;52.562;13.418;2024-02-21T00:16:43;9.77;;;6.00;;
22826;SDS011;11580;52.562;13.418;2024-02-21T00:19:12;7.93;;;6.03;;
22826;SDS011;11580;52.562;13.418;2024-02-21T00:21:39;7.30;;;5.93;;
22826;SDS011;11580;52.562;13.418;2024-02-21T00:24:07;7.57;;;5.60;;
22826;SDS011;11580;52.562;13.418;2024-02-21T00:26:34;8.40;;;5.80;;
22826;SDS011;11580;52.562;13.418;2024-02-21T00:29:01;9.67;;;5.87;;
22826;SDS011;11580;52.562;13.418;2024-02-21T00:31:28;11.90;;;6.53;;
22826;SDS011;11580;52.562;13.418;2024-02-21T00:33:55;6.33;;;5.27;;
22826;SDS011;11580;52.562;13.418;2024-02-21T00:36:25;10.03;;;6.37;;
22826;SDS011;11580;52.562;13.418;2024-02-21T00:38:52;8.50;;;5.60;;
22826;SDS011;11580;52.562;13.418;2024-02-21T00:41:19;8.53;;;5.50;;
22826;SDS011;11580;52.562;13.418;2024-02-21T00:43:46;6.77;;;6.07;;
22826;SDS011;11580;52.562;13.418;2024-02-21T00:46:15;12.37;;;6.70;;
22826;SDS011;11580;52.562;13.418;2024-02-21T00:48:42;9.63;;;5.80;;
22826;SDS011;11580;52.562;13.418;2024-02-21T00:51:09;7.53;;;5.60;;
22826;SDS011;11580;52.562;13.418;2024-02-21T00:53:38;8.37;;;4.80;;
22826;SDS011;11580;52.562;13.418;2024-02-21T00:56:05;8.03;;;5.30;;
22826;SDS011;11580;52.562;13.418;2024-02-21T00:58:32;7.70;;;5.67;;
22826;SDS011;11580;52.562;13.418;2024-02-21T01:01:00;6.50;;;5.40;;
22826;SDS011;11580;52.562;13.418;2024-02-21T01:03:28;8.67;;;5.27;;
22826;SDS011;11580;52.562;13.418;2024-02-21T01:05:55;6.90;;;5.00;;
22826;SDS011;11580;52.562;13.418;2024-02-21T01:08:22;6.63;;;5.50;;
22826;SDS011;11580;52.562;13.418;2024-02-21T01:10:51;6.70;;;5.40;;
22826;SDS011;11580;52.562;13.418;2024-02-21T01:13:18;10.03;;;5.60;;
22826;SDS011;11580;52.562;13.418;2024-02-21T01:15:45;13.87;;;5.90;;
22826;SDS011;11580;52.562;13.418;2024-02-21T01:18:12;7.90;;;4.87;;
22826;SDS011;11580;52.562;13.418;2024-02-21T01:20:40;5.90;;;5.30;;
22826;SDS011;11580;52.562;13.418;2024-02-21T01:23:07;9.00;;;5.23;;
22826;SDS011;11580;52.562;13.418;2024-02-21T01:25:34;7.70;;;4.90;;
22826;SDS011;11580;52.562;13.418;2024-02-21T01:28:03;6.63;;;5.07;;
22826;SDS011;11580;52.562;13.418;2024-02-21T01:30:30;7.70;;;4.97;;
22826;SDS011;11580;52.562;13.418;2024-02-21T01:32:57;10.27;;;5.40;;
22826;SDS011;11580;52.562;13.418;2024-02-21T01:35:25;7.40;;;4.67;;
22826;SDS011;11580;52.562;13.418;2024-02-21T01:37:52;6.50;;;4.83;;
22826;SDS011;11580;52.562;13.418;2024-02-21T01:40:19;8.80;;;4.87;;
22826;SDS011;11580;52.562;13.418;2024-02-21T01:42:46;6.30;;;4.70;;
22826;SDS011;11580;52.562;13.418;2024-02-21T01:45:15;7.33;;;5.10;;
22826;SDS011;11580;52.562;13.418;2024-02-21T01:47:42;6.40;;;5.60;;
22826;SDS011;11580;52.562;13.418;2024-02-21T01:50:10;5.60;;;4.80;;
22826;SDS011;11580;52.562;13.418;2024-02-21T01:52:40;6.43;;;5.47;;
22826;SDS011;11580;52.562;13.418;2024-02-21T01:55:09;8.60;;;4.83;;
22826;SDS011;11580;52.562;13.418;2024-02-21T01:57:38;7.43;;;4.80;;
22826;SDS011;11580;52.562;13.418;2024-02-21T02:00:07;8.97;;;4.83;;
22826;SDS011;11580;52.562;13.418;2024-02-21T02:02:41;6.57;;;4.67;;
22826;SDS011;11580;52.562;13.418;2024-02-21T02:05:10;11.43;;;5.17;;
22826;SDS011;11580;52.562;13.418;2024-02-21T02:07:37;7.37;;;5.03;;
22826;SDS011;11580;52.562;13.418;2024-02-21T02:10:05;6.20;;;4.93;;
22826;SDS011;11580;52.562;13.418;2024-02-21T02:12:35;7.90;;;5.00;;
22826;SDS011;11580;52.562;13.418;2024-02-21T02:15:03;9.60;;;5.23;;
22826;SDS011;11580;52.562;13.418;2024-02-21T02:17:31;11.03;;;4.97;;
22826;SDS011;11580;52.562;13.418;2024-02-21T02:19:59;9.63;;;5.10;;
22826;SDS011;11580;52.562;13.418;2024-02-21T02:22:28;9.87;;;5.47;;
22826;SDS011;11580;52.562;13.418;2024-02-21T02:24:59;7.30;;;4.40;;
22826;SDS011;11580;52.562;13.418;2024-02-21T02:27:26;6.63;;;4.87;;
22826;SDS011;11580;52.562;13.418;2024-02-21T02:29:53;8.17;;;5.07;;
22826;SDS011;11580;52.562;13.418;2024-02-21T02:32:20;8.43;;;5.70;;
22826;SDS011;11580;52.562;13.418;2024-02-21T02:34:47;6.47;;;5.03;;
22826;SDS011;11580;52.562;13.418;2024-02-21T02:37:14;7.97;;;4.43;;
22826;SDS011;11580;52.562;13.418;2024-02-21T02:39:42;7.80;;;5.20;;
22826;SDS011;11580;52.562;13.418;2024-02-21T02:42:10;7.17;;;4.70;;
22826;SDS011;11580;52.562;13.418;2024-02-21T02:44:37;6.10;;;5.00;;
22826;SDS011;11580;52.562;13.418;2024-02-21T02:47:04;5.73;;;4.47;;
22826;SDS011;11580;52.562;13.418;2024-02-21T02:49:32;9.70;;;5.50;;
22826;SDS011;11580;52.562;13.418;2024-02-21T02:51:59;7.00;;;4.77;;
22826;SDS011;11580;52.562;13.418;2024-02-21T02:54:26;8.03;;;4.80;;
22826;SDS011;11580;52.562;13.418;2024-02-21T02:56:53;6.87;;;4.90;;
22826;SDS011;11580;52.562;13.418;2024-02-21T02:59:22;5.70;;;4.63;;
22826;SDS011;11580;52.562;13.418;2024-02-21T03:01:49;7.30;;;4.93;;
22826;SDS011;11580;52.562;13.418;2024-02-21T03:04:16;9.30;;;5.50;;
22826;SDS011;11580;52.562;13.418;2024-02-21T03:06:43;8.83;;;4.90;;
22826;SDS011;11580;52.562;13.418;2024-02-21T03:09:10;8.10;;;4.60;;
22826;SDS011;11580;52.562;13.418;2024-02-21T03:11:37;6.67;;;5.70;;
22826;SDS011;11580;52.562;13.418;2024-02-21T03:14:06;5.77;;;5.20;;
22826;SDS011;11580;52.562;13.418;2024-02-21T03:16:34;6.67;;;4.57;;
22826;SDS011;11580;52.562;13.418;2024-02-21T03:19:01;9.10;;;4.90;;
22826;SDS011;11580;52.562;13.418;2024-02-21T03:21:28;8.27;;;5.40;;
22826;SDS011;11580;52.562;13.418;2024-02-21T03:23:56;8.07;;;5.10;;
22826;SDS011;11580;52.562;13.418;2024-02-21T03:26:23;7.27;;;5.20;;
22826;SDS011;11580;52.562;13.418;2024-02-21T03:28:50;7.07;;;5.27;;
22826;SDS011;11580;52.562;13.418;2024-02-21T03:31:17;5.40;;;4.57;;
22826;SDS011;11580;52.562;13.418;2024-02-21T03:33:45;8.90;;;5.80;;
22826;SDS011;11580;52.562;13.418;2024-02-21T03:36:13;6.87;;;4.90;;
22826;SDS011;11580;52.562;13.418;2024-02-21T03:38:40;7.30;;;5.37;;
22826;SDS011;11580;52.562;13.418;2024-02-21T03:41:08;11.03;;;5.53;;
22826;SDS011;11580;52.562;13.418;2024-02-21T03:43:35;6.90;;;5.30;;
22826;SDS011;11580;52.562;13.418;2024-02-21T03:46:04;7.83;;;6.30;;
22826;SDS011;11580;52.562;13.418;2024-02-21T03:48:32;7.23;;;5.27;;
22826;SDS011;11580;52.562;13.418;2024-02-21T03:51:01;7.20;;;5.20;;
22826;SDS011;11580;52.562;13.418;2024-02-21T03:53:28;8.33;;;5.60;;
22826;SDS011;11580;52.562;13.418;2024-02-21T03:55:55;10.00;;;6.10;;
22826;SDS011;11580;52.562;13.418;2024-02-21T03:58:27;7.20;;;5.30;;
22826;SDS011;11580;52.562;13.418;2024-02-21T04:00:55;5.57;;;5.00;;
22826;SDS011;11580;52.562;13.418;2024-02-21T04:03:22;8.13;;;5.10;;
22826;SDS011;11580;52.562;13.418;2024-02-21T04:05:49;7.00;;;5.20;;
22826;SDS011;11580;52.562;13.418;2024-02-21T04:08:18;9.30;;;6.33;;
22826;SDS011;11580;52.562;13.418;2024-02-21T04:10:45;6.30;;;5.10;;
22826;SDS011;11580;52.562;13.418;2024-02-21T04:13:13;10.30;;;6.00;;
22826;SDS011;11580;52.562;13.418;2024-02-21T04:15:40;7.20;;;5.00;;
22826;SDS011;11580;52.562;13.418;2024-02-21T04:18:07;6.30;;;5.37;;
22826;SDS011;11580;52.562;13.418;2024-02-21T04:20:35;11.00;;;6.47;;
22826;SDS011;11580;52.562;13.418;2024-02-21T04:23:02;8.27;;;5.70;;
22826;SDS011;11580;52.562;13.418;2024-02-21T04:25:31;9.23;;;6.57;;
22826;SDS011;11580;52.562;13.418;2024-02-21T04:27:58;9.00;;;5.40;;
22826;SDS011;11580;52.562;13.418;2024-02-21T04:30:25;9.33;;;6.10;;
22826;SDS011;11580;52.562;13.418;2024-02-21T04:32:53;10.00;;;5.77;;
22826;SDS011;11580;52.562;13.418;2024-02-21T04:35:20;8.83;;;5.53;;
22826;SDS011;11580;52.562;13.418;2024-02-21T04:37:49;10.00;;;5.83;;
22826;SDS011;11580;52.562;13.418;2024-02-21T04:40:16;9.50;;;6.00;;
22826;SDS011;11580;52.562;13.418;2024-02-21T04:42:44;6.60;;;5.40;;
22826;SDS011;11580;52.562;13.418;2024-02-21T04:45:12;11.20;;;6.60;;
22826;SDS011;11580;52.562;13.418;2024-02-21T04:47:39;8.23;;;6.33;;
22826;SDS011;11580;52.562;13.418;2024-02-21T04:50:06;7.83;;;5.90;;
22826;SDS011;11580;52.562;13.418;2024-02-21T04:52:34;8.87;;;6.50;;
22826;SDS011;11580;52.562;13.418;2024-02-21T04:55:01;6.47;;;5.43;;
22826;SDS011;11580;52.562;13.418;2024-02-21T04:57:29;8.47;;;6.23;;
22826;SDS011;11580;52.562;13.418;2024-02-21T04:59:57;10.40;;;6.27;;
22826;SDS011;11580;52.562;13.418;2024-02-21T05:02:24;6.70;;;5.67;;
22826;SDS011;11580;52.562;13.418;2024-02-21T05:04:52;8.33;;;5.67;;
22826;SDS011;11580;52.562;13.418;2024-02-21T05:07:19;6.97;;;5.23;;
22826;SDS011;11580;52.562;13.418;2024-02-21T05:09:46;8.60;;;6.07;;
22826;SDS011;11580;52.562;13.418;2024-02-21T05:12:13;7.40;;;6.63;;
22826;SDS011;11580;52.562;13.418;2024-02-21T05:14:40;8.93;;;5.60;;
22826;SDS011;11580;52.562;13.418;2024-02-21T05:17:09;6.53;;;5.53;;
22826;SDS011;11580;52.562;13.418;2024-02-21T05:19:36;8.60;;;4.93;;
22826;SDS011;11580;52.562;13.418;2024-02-21T05:22:04;9.80;;;6.47;;
22826;SDS011;11580;52.562;13.418;2024-02-21T05:24:31;7.23;;;5.77;;
22826;SDS011;11580;52.562;13.418;2024-02-21T05:26:58;8.33;;;6.30;;
22826;SDS011;11580;52.562;13.418;2024-02-21T05:29:25;8.43;;;5.93;;
22826;SDS011;11580;52.562;13.418;2024-02-21T05:31:56;7.43;;;5.80;;
22826;SDS011;11580;52.562;13.418;2024-02-21T05:34:25;6.70;;;5.77;;
22826;SDS011;11580;52.562;13.418;2024-02-21T05:36:53;9.30;;;5.80;;
22826;SDS011;11580;52.562;13.418;2024-02-21T05:39:20;9.33;;;6.67;;
22826;SDS011;11580;52.562;13.418;2024-02-21T05:41:48;9.97;;;7.30;;
22826;SDS011;11580;52.562;13.418;2024-02-21T05:44:16;8.33;;;6.20;;
22826;SDS011;11580;52.562;13.418;2024-02-21T05:46:44;8.77;;;6.00;;
22826;SDS011;11580;52.562;13.418;2024-02-21T05:49:12;10.40;;;6.97;;
22826;SDS011;11580;52.562;13.418;2024-02-21T05:51:41;11.87;;;6.53;;
22826;SDS011;11580;52.562;13.418;2024-02-21T05:54:08;7.37;;;6.67;;
22826;SDS011;11580;52.562;13.418;2024-02-21T05:56:35;8.03;;;5.83;;
22826;SDS011;11580;52.562;13.418;2024-02-21T05:59:02;6.50;;;5.90;;
22826;SDS011;11580;52.562;13.418;2024-02-21T06:01:29;8.27;;;6.93;;
22826;SDS011;11580;52.562;13.418;2024-02-21T06:03:57;8.13;;;6.20;;
22826;SDS011;11580;52.562;13.418;2024-02-21T06:06:24;8.13;;;6.87;;
22826;SDS011;11580;52.562;13.418;2024-02-21T06:08:52;9.33;;;7.07;;
22826;SDS011;11580;52.562;13.418;2024-02-21T06:11:19;9.40;;;6.20;;
22826;SDS011;11580;52.562;13.418;2024-02-21T06:13:46;8.93;;;6.90;;
22826;SDS011;11580;52.562;13.418;2024-02-21T06:16:14;8.77;;;7.27;;
22826;SDS011;11580;52.562;13.418;2024-02-21T06:18:41;7.53;;;6.73;;
22826;SDS011;11580;52.562;13.418;2024-02-21T06:21:08;10.00;;;7.63;;
22826;SDS011;11580;52.562;13.418;2024-02-21T06:23:37;7.40;;;6.70;;
22826;SDS011;11580;52.562;13.418;2024-02-21T06:26:05;9.10;;;7.10;;
22826;SDS011;11580;52.562;13.418;2024-02-21T06:28:33;11.63;;;6.70;;
22826;SDS011;11580;52.562;13.418;2024-02-21T06:31:00;8.10;;;7.30;;
22826;SDS011;11580;52.562;13.418;2024-02-21T06:33:27;9.37;;;7.60;;
22826;SDS011;11580;52.562;13.418;2024-02-21T06:35:54;10.20;;;6.87;;
22826;SDS011;11580;52.562;13.418;2024-02-21T06:38:22;8.97;;;7.20;;
22826;SDS011;11580;52.562;13.418;2024-02-21T06:40:49;10.63;;;6.90;;
22826;SDS011;11580;52.562;13.418;2024-02-21T06:43:19;7.70;;;6.70;;
22826;SDS011;11580;52.562;13.418;2024-02-21T06:45:47;9.90;;;7.13;;
22826;SDS011;11580;52.562;13.418;2024-02-21T06:48:16;8.13;;;7.07;;
22826;SDS011;11580;52.562;13.418;2024-02-21T06:50:44;7.77;;;7.03;;
22826;SDS011;11580;52.562;13.418;2024-02-21T06:53:12;8.67;;;6.37;;
22826;SDS011;11580;52.562;13.418;2024-02-21T06:55:39;9.10;;;7.60;;
22826;SDS011;11580;52.562;13.418;2024-02-21T06:58:06;8.40;;;7.60;;
22826;SDS011;11580;52.562;13.418;2024-02-21T07:00:38;9.30;;;6.90;;
22826;SDS011;11580;52.562;13.418;2024-02-21T07:03:05;11.80;;;7.27;;
22826;SDS011;11580;52.562;13.418;2024-02-21T07:05:33;9.17;;;7.27;;
22826;SDS011;11580;52.562;13.418;2024-02-21T07:08:00;9.97;;;6.93;;
22826;SDS011;11580;52.562;13.418;2024-02-21T07:10:28;7.70;;;6.90;;
22826;SDS011;11580;52.562;13.418;2024-02-21T07:12:55;9.07;;;7.33;;
22826;SDS011;11580;52.562;13.418;2024-02-21T07:15:22;8.30;;;6.90;;
22826;SDS011;11580;52.562;13.418;2024-02-21T07:17:53;9.60;;;7.97;;
22826;SDS011;11580;52.562;13.418;2024-02-21T07:20:20;20.13;;;8.40;;
22826;SDS011;11580;52.562;13.418;2024-02-21T07:22:47;12.03;;;7.47;;
22826;SDS011;11580;52.562;13.418;2024-02-21T07:25:14;9.13;;;8.13;;
22826;SDS011;11580;52.562;13.418;2024-02-21T07:27:42;8.60;;;6.93;;
22826;SDS011;11580;52.562;13.418;2024-02-21T07:30:10;9.70;;;7.30;;
22826;SDS011;11580;52.562;13.418;2024-02-21T07:32:38;10.17;;;7.90;;
22826;SDS011;11580;52.562;13.418;2024-02-21T07:35:07;7.73;;;7.03;;
22826;SDS011;11580;52.562;13.418;2024-02-21T07:37:37;7.90;;;7.00;;
22826;SDS011;11580;52.562;13.418;2024-02-21T07:40:05;8.57;;;7.57;;
22826;SDS011;11580;52.562;13.418;2024-02-21T07:42:38;8.67;;;7.57;;
22826;SDS011;11580;52.562;13.418;2024-02-21T07:45:05;10.30;;;7.33;;
22826;SDS011;11580;52.562;13.418;2024-02-21T07:47:34;7.50;;;6.70;;
22826;SDS011;11580;52.562;13.418;2024-02-21T07:50:01;9.93;;;7.00;;
22826;SDS011;11580;52.562;13.418;2024-02-21T07:52:30;7.87;;;7.17;;
22826;SDS011;11580;52.562;13.418;2024-02-21T07:54:57;8.10;;;7.03;;
22826;SDS011;11580;52.562;13.418;2024-02-21T07:57:24;8.80;;;7.70;;
22826;SDS011;11580;52.562;13.418;2024-02-21T07:59:51;9.17;;;7.60;;
22826;SDS011;11580;52.562;13.418;2024-02-21T08:02:18;11.20;;;7.73;;
22826;SDS011;11580;52.562;13.418;2024-02-21T08:04:46;9.20;;;7.20;;
22826;SDS011;11580;52.562;13.418;2024-02-21T08:07:13;7.47;;;6.70;;
22826;SDS011;11580;52.562;13.418;2024-02-21T08:09:41;7.13;;;6.53;;
22826;SDS011;11580;52.562;13.418;2024-02-21T08:12:08;9.50;;;7.30;;
22826;SDS011;11580;52.562;13.418;2024-02-21T08:14:36;9.10;;;7.00;;
22826;SDS011;11580;52.562;13.418;2024-02-21T08:17:03;9.67;;;7.17;;
22826;SDS011;11580;52.562;13.418;2024-02-21T08:19:30;8.17;;;7.30;;
22826;SDS011;11580;52.562;13.418;2024-02-21T08:21:57;9.27;;;7.93;;
22826;SDS011;11580;52.562;13.418;2024-02-21T08:24:25;8.70;;;7.53;;
22826;SDS011;11580;52.562;13.418;2024-02-21T08:26:54;8.70;;;7.80;;
22826;SDS011;11580;52.562;13.418;2024-02-21T08:29:21;8.23;;;6.93;;
22826;SDS011;11580;52.562;13.418;2024-02-21T08:31:48;8.17;;;7.33;;
22826;SDS011;11580;52.562;13.418;2024-02-21T08:34:15;9.43;;;7.40;;
22826;SDS011;11580;52.562;13.418;2024-02-21T08:36:43;8.90;;;7.20;;
22826;SDS011;11580;52.562;13.418;2024-02-21T08:39:10;8.67;;;7.63;;
22826;SDS011;11580;52.562;13.418;2024-02-21T08:41:41;8.47;;;7.67;;
22826;SDS011;11580;52.562;13.418;2024-02-21T08:44:10;9.10;;;7.00;;
22826;SDS011;11580;52.562;13.418;2024-02-21T08:46:38;9.37;;;7.50;;
22826;SDS011;11580;52.562;13.418;2024-02-21T08:49:05;8.43;;;7.50;;
22826;SDS011;11580;52.562;13.418;2024-02-21T08:51:32;7.80;;;7.00;;
22826;SDS011;11580;52.562;13.418;2024-02-21T08:54:00;9.33;;;7.13;;
22826;SDS011;11580;52.562;13.418;2024-02-21T08:56:29;10.20;;;7.80;;
22826;SDS011;11580;52.562;13.418;2024-02-21T08:58:57;10.00;;;7.37;;
22826;SDS011;11580;52.562;13.418;2024-02-21T09:01:27;7.47;;;6.53;;
22826;SDS011;11580;52.562;13.418;2024-02-21T09:03:54;8.33;;;6.60;;
22826;SDS011;11580;52.562;13.418;2024-02-21T09:06:22;10.00;;;8.77;;
22826;SDS011;11580;52.562;13.418;2024-02-21T09:08:49;9.20;;;7.90;;
22826;SDS011;11580;52.562;13.418;2024-02-21T09:11:16;8.53;;;7.83;;
22826;SDS011;11580;52.562;13.418;2024-02-21T09:13:43;7.70;;;7.00;;
22826;SDS011;11580;52.562;13.418;2024-02-21T09:16:10;9.00;;;8.10;;
22826;SDS011;11580;52.562;13.418;2024-02-21T09:18:39;14.10;;;8.80;;
22826;SDS011;11580;52.562;13.418;2024-02-21T09:21:06;9.70;;;8.60;;
22826;SDS011;11580;52.562;13.418;2024-02-21T09:23:33;9.37;;;7.67;;
22826;SDS011;11580;52.562;13.418;2024-02-21T09:26:00;9.90;;;8.07;;
22826;SDS011;11580;52.562;13.418;2024-02-21T09:28:29;11.43;;;8.43;;
22826;SDS011;11580;52.562;13.418;2024-02-21T09:30:56;14.40;;;8.40;;
22826;SDS011;11580;52.562;13.418;2024-02-21T09:33:23;8.40;;;7.50;;
22826;SDS011;11580;52.562;13.418;2024-02-21T09:35:52;10.20;;;8.97;;
22826;SDS011;11580;52.562;13.418;2024-02-21T09:38:20;9.87;;;8.17;;
22826;SDS011;11580;52.562;13.418;2024-02-21T09:40:47;9.17;;;8.17;;
22826;SDS011;11580;52.562;13.418;2024-02-21T09:43:22;9.57;;;8.67;;
22826;SDS011;11580;52.562;13.418;2024-02-21T09:45:49;10.03;;;9.03;;
22826;SDS011;11580;52.562;13.418;2024-02-21T09:51:20;8.80;;;8.00;;
22826;SDS011;11580;52.562;13.418;2024-02-21T09:53:49;11.67;;;9.03;;
22826;SDS011;11580;52.562;13.418;2024-02-21T09:56:19;10.00;;;9.10;;
22826;SDS011;11580;52.562;13.418;2024-02-21T09:58:46;10.13;;;8.30;;
22826;SDS011;11580;52.562;13.418;2024-02-21T10:01:14;11.63;;;9.03;;
22826;SDS011;11580;52.562;13.418;2024-02-21T10:03:41;10.43;;;8.70;;
22826;SDS011;11580;52.562;13.418;2024-02-21T10:06:09;10.10;;;9.17;;
22826;SDS011;11580;52.562;13.418;2024-02-21T10:08:37;8.90;;;8.00;;
22826;SDS011;11580;52.562;13.418;2024-02-21T10:11:05;14.43;;;9.30;;
22826;SDS011;11580;52.562;13.418;2024-02-21T10:13:34;10.93;;;8.77;;
22826;SDS011;11580;52.562;13.418;2024-02-21T10:16:04;10.83;;;9.23;;
22826;SDS011;11580;52.562;13.418;2024-02-21T10:18:32;12.27;;;10.00;;
22826;SDS011;11580;52.562;13.418;2024-02-21T10:21:01;9.80;;;8.87;;
22826;SDS011;11580;52.562;13.418;2024-02-21T10:23:28;10.80;;;7.80;;
22826;SDS011;11580;52.562;13.418;2024-02-21T10:26:08;9.33;;;8.43;;
22826;SDS011;11580;52.562;13.418;2024-02-21T10:28:36;10.90;;;9.10;;
22826;SDS011;11580;52.562;13.418;2024-02-21T10:31:07;9.07;;;8.10;;
22826;SDS011;11580;52.562;13.418;2024-02-21T10:33:36;11.03;;;9.77;;
22826;SDS011;11580;52.562;13.418;2024-02-21T10:36:07;9.67;;;8.50;;
22826;SDS011;11580;52.562;13.418;2024-02-21T10:38:36;9.67;;;8.47;;
22826;SDS011;11580;52.562;13.418;2024-02-21T10:41:04;9.30;;;8.30;;
22826;SDS011;11580;52.562;13.418;2024-02-21T10:43:38;10.50;;;8.17;;
22826;SDS011;11580;52.562;13.418;2024-02-21T10:46:07;9.67;;;8.60;;
22826;SDS011;11580;52.562;13.418;2024-02-21T10:48:39;8.80;;;7.77;;
22826;SDS011;11580;52.562;13.418;2024-02-21T10:51:16;8.33;;;7.63;;
22826;SDS011;11580;52.562;13.418;2024-02-21T10:53:47;8.97;;;8.13;;
22826;SDS011;11580;52.562;13.418;2024-02-21T10:56:28;8.30;;;7.50;;
22826;SDS011;11580;52.562;13.418;2024-02-21T10:59:02;8.53;;;7.73;;
22826;SDS011;11580;52.562;13.418;2024-02-21T11:01:32;8.77;;;7.90;;
22826;SDS011;11580;52.562;13.418;2024-02-21T11:04:01;10.77;;;8.20;;
22826;SDS011;11580;52.562;13.418;2024-02-21T11:06:31;8.57;;;7.67;;
22826;SDS011;11580;52.562;13.418;2024-02-21T11:09:02;8.50;;;7.70;;
22826;SDS011;11580;52.562;13.418;2024-02-21T11:11:33;8.23;;;7.53;;
22826;SDS011;11580;52.562;13.418;2024-02-21T11:14:05;7.87;;;7.20;;
22826;SDS011;11580;52.562;13.418;2024-02-21T11:16:37;7.27;;;6.50;;
22826;SDS011;11580;52.562;13.418;2024-02-21T11:19:08;7.73;;;7.00;;
22826;SDS011;11580;52.562;13.418;2024-02-21T11:21:46;8.30;;;7.50;;
22826;SDS011;11580;52.562;13.418;2024-02-21T11:24:14;9.30;;;8.40;;
22826;SDS011;11580;52.562;13.418;2024-02-21T11:26:53;7.87;;;7.07;;
22826;SDS011;11580;52.562;13.418;2024-02-21T11:29:25;7.70;;;7.10;;
22826;SDS011;11580;52.562;13.418;2024-02-21T11:31:54;7.73;;;6.93;;
22826;SDS011;11580;52.562;13.418;2024-02-21T11:34:22;7.10;;;6.37;;
22826;SDS011;11580;52.562;13.418;2024-02-21T11:36:49;10.33;;;6.80;;
22826;SDS011;11580;52.562;13.418;2024-02-21T11:39:19;8.40;;;7.33;;
22826;SDS011;11580;52.562;13.418;2024-02-21T11:41:59;6.87;;;6.20;;
22826;SDS011;11580;52.562;13.418;2024-02-21T11:44:30;6.80;;;6.10;;
22826;SDS011;11580;52.562;13.418;2024-02-21T11:46:57;7.63;;;6.60;;
22826;SDS011;11580;52.562;13.418;2024-02-21T11:49:25;7.00;;;6.30;;
22826;SDS011;11580;52.562;13.418;2024-02-21T11:51:57;7.90;;;6.67;;
22826;SDS011;11580;52.562;13.418;2024-02-21T11:54:26;6.03;;;5.53;;
22826;SDS011;11580;52.562;13.418;2024-02-21T11:56:53;6.27;;;5.67;;
22826;SDS011;11580;52.562;13.418;2024-02-21T11:59:20;6.20;;;5.57;;
22826;SDS011;11580;52.562;13.418;2024-02-21T12:01:49;7.47;;;5.43;;
22826;SDS011;11580;52.562;13.418;2024-02-21T12:04:17;5.97;;;5.47;;
22826;SDS011;11580;52.562;13.418;2024-02-21T12:06:45;5.83;;;5.30;;
22826;SDS011;11580;52.562;13.418;2024-02-21T12:09:13;6.07;;;5.47;;
22826;SDS011;11580;52.562;13.418;2024-02-21T12:11:41;5.63;;;5.13;;
22826;SDS011;11580;52.562;13.418;2024-02-21T12:14:09;5.60;;;4.93;;
22826;SDS011;11580;52.562;13.418;2024-02-21T12:16:37;6.40;;;5.80;;
22826;SDS011;11580;52.562;13.418;2024-02-21T12:19:05;5.93;;;5.40;;
22826;SDS011;11580;52.562;13.418;2024-02-21T12:21:34;5.30;;;4.90;;
22826;SDS011;11580;52.562;13.418;2024-02-21T12:24:11;6.90;;;6.20;;
22826;SDS011;11580;52.562;13.418;2024-02-21T12:26:39;6.10;;;5.50;;
22826;SDS011;11580;52.562;13.418;2024-02-21T12:29:06;6.23;;;5.73;;
22826;SDS011;11580;52.562;13.418;2024-02-21T12:31:34;6.80;;;6.20;;
22826;SDS011;11580;52.562;13.418;2024-02-21T12:34:02;7.30;;;6.40;;
22826;SDS011;11580;52.562;13.418;2024-02-21T12:36:30;5.40;;;4.90;;
22826;SDS011;11580;52.562;13.418;2024-02-21T12:38:57;6.63;;;5.30;;
22826;SDS011;11580;52.562;13.418;2024-02-21T12:41:25;5.73;;;5.23;;
22826;SDS011;11580;52.562;13.418;2024-02-21T12:43:53;5.30;;;4.80;;
22826;SDS011;11580;52.562;13.418;2024-02-21T12:46:21;6.00;;;5.40;;
22826;SDS011;11580;52.562;13.418;2024-02-21T12:48:48;5.67;;;4.80;;
22826;SDS011;11580;52.562;13.418;2024-02-21T12:51:16;5.63;;;5.03;;
22826;SDS011;11580;52.562;13.418;2024-02-21T12:53:47;5.80;;;4.50;;
22826;SDS011;11580;52.562;13.418;2024-02-21T12:56:15;7.77;;;5.17;;
22826;SDS011;11580;52.562;13.418;2024-02-21T12:58:42;5.30;;;4.90;;
22826;SDS011;11580;52.562;13.418;2024-02-21T13:01:10;5.37;;;4.83;;
22826;SDS011;11580;52.562;13.418;2024-02-21T13:03:37;6.50;;;5.30;;
22826;SDS011;11580;52.562;13.418;2024-02-21T13:06:04;4.33;;;4.03;;
22826;SDS011;11580;52.562;13.418;2024-02-21T13:08:35;6.33;;;4.23;;
22826;SDS011;11580;52.562;13.418;2024-02-21T13:11:04;5.70;;;4.20;;
22826;SDS011;11580;52.562;13.418;2024-02-21T13:13:31;4.90;;;3.80;;
22826;SDS011;11580;52.562;13.418;2024-02-21T13:15:59;3.77;;;3.47;;
22826;SDS011;11580;52.562;13.418;2024-02-21T13:18:27;4.33;;;3.93;;
22826;SDS011;11580;52.562;13.418;2024-02-21T13:20:54;4.90;;;4.50;;
22826;SDS011;11580;52.562;13.418;2024-02-21T13:23:21;6.00;;;4.93;;
22826;SDS011;11580;52.562;13.418;2024-02-21T13:25:48;4.67;;;4.27;;
22826;SDS011;11580;52.562;13.418;2024-02-21T13:28:17;5.77;;;4.40;;
22826;SDS011;11580;52.562;13.418;2024-02-21T13:30:44;5.07;;;4.47;;
22826;SDS011;11580;52.562;13.418;2024-02-21T13:33:12;4.83;;;4.23;;
22826;SDS011;11580;52.562;13.418;2024-02-21T13:35:40;4.90;;;4.40;;
22826;SDS011;11580;52.562;13.418;2024-02-21T13:38:07;4.37;;;3.97;;
22826;SDS011;11580;52.562;13.418;2024-02-21T13:40:35;4.90;;;4.40;;
22826;SDS011;11580;52.562;13.418;2024-02-21T13:43:02;6.13;;;4.50;;
22826;SDS011;11580;52.562;13.418;2024-02-21T13:45:31;4.90;;;4.40;;
22826;SDS011;11580;52.562;13.418;2024-02-21T13:47:58;5.87;;;5.37;;
22826;SDS011;11580;52.562;13.418;2024-02-21T13:50:29;5.27;;;4.60;;
22826;SDS011;11580;52.562;13.418;2024-02-21T13:52:57;8.70;;;3.90;;
22826;SDS011;11580;52.562;13.418;2024-02-21T13:55:24;4.10;;;3.70;;
22826;SDS011;11580;52.562;13.418;2024-02-21T13:57:52;4.50;;;4.10;;
22826;SDS011;11580;52.562;13.418;2024-02-21T14:00:19;4.93;;;3.93;;
22826;SDS011;11580;52.562;13.418;2024-02-21T14:02:48;5.87;;;4.23;;
22826;SDS011;11580;52.562;13.418;2024-02-21T14:05:15;6.20;;;4.40;;
22826;SDS011;11580;52.562;13.418;2024-02-21T14:07:42;4.13;;;3.73;;
22826;SDS011;11580;52.562;13.418;2024-02-21T14:10:10;4.30;;;3.90;;
22826;SDS011;11580;52.562;13.418;2024-02-21T14:12:37;5.10;;;4.50;;
22826;SDS011;11580;52.562;13.418;2024-02-21T14:15:05;4.93;;;4.53;;
22826;SDS011;11580;52.562;13.418;2024-02-21T14:17:34;4.80;;;4.40;;
22826;SDS011;11580;52.562;13.418;2024-02-21T14:20:02;4.23;;;3.83;;
22826;SDS011;11580;52.562;13.418;2024-02-21T14:22:31;5.50;;;4.40;;
22826;SDS011;11580;52.562;13.418;2024-02-21T14:24:58;4.77;;;3.87;;
22826;SDS011;11580;52.562;13.418;2024-02-21T14:27:25;4.73;;;4.20;;
22826;SDS011;11580;52.562;13.418;2024-02-21T14:29:53;6.47;;;4.30;;
22826;SDS011;11580;52.562;13.418;2024-02-21T14:32:20;6.50;;;4.57;;
22826;SDS011;11580;52.562;13.418;2024-02-21T14:34:47;6.27;;;4.53;;
22826;SDS011;11580;52.562;13.418;2024-02-21T14:37:16;4.13;;;3.70;;
22826;SDS011;11580;52.562;13.418;2024-02-21T14:39:43;5.07;;;4.57;;
22826;SDS011;11580;52.562;13.418;2024-02-21T14:42:10;4.10;;;3.70;;